createdAt,value
2022-12-11T00:00:54.718Z,1.00
2022-12-11T00:01:54.808Z,1.00
2022-12-11T00:02:54.719Z,1.00
2022-12-11T00:03:54.751Z,1.00
2022-12-11T00:04:54.694Z,1.00
2022-12-11T00:05:54.704Z,1.00
2022-12-11T00:06:54.686Z,1.00
2022-12-11T00:07:54.737Z,1.00
2022-12-11T00:08:54.688Z,1.00
2022-12-11T00:09:54.707Z,1.00
2022-12-11T00:10:54.680Z,1.00
2022-12-11T00:11:54.650Z,1.00
2022-12-11T00:12:54.676Z,1.00
2022-12-11T00:13:54.681Z,1.00
2022-12-11T00:14:54.634Z,1.00
2022-12-11T00:15:54.624Z,1.00
2022-12-11T00:16:54.692Z,1.00
2022-12-11T00:17:54.620Z,1.00
2022-12-11T00:18:54.606Z,1.00
2022-12-11T00:19:54.597Z,1.00
2022-12-11T00:20:54.598Z,1.00
2022-12-11T00:21:54.593Z,1.00
2022-12-11T00:22:54.618Z,1.00
2022-12-11T00:23:54.580Z,1.00
2022-12-11T00:24:54.572Z,1.00
2022-12-11T00:25:54.595Z,1.00
2022-12-11T00:26:54.552Z,1.00
2022-12-11T00:27:54.567Z,1.00
2022-12-11T00:28:54.550Z,1.00
2022-12-11T00:29:54.547Z,1.00
2022-12-11T00:30:54.535Z,1.00
2022-12-11T00:31:54.587Z,1.00
2022-12-11T00:32:54.533Z,1.00
2022-12-11T00:33:54.561Z,1.00
2022-12-11T00:34:54.541Z,1.00
2022-12-11T00:35:55.023Z,1.00
2022-12-11T00:36:54.496Z,1.00
2022-12-11T00:37:54.508Z,1.00
2022-12-11T00:38:54.496Z,1.00
2022-12-11T00:39:54.518Z,1.00
2022-12-11T00:40:54.485Z,1.00
2022-12-11T00:41:54.502Z,1.00
2022-12-11T00:42:54.451Z,1.00
2022-12-11T00:43:54.454Z,1.00
2022-12-11T00:44:54.444Z,1.00
2022-12-11T00:45:54.451Z,1.00
2022-12-11T00:46:54.496Z,1.00
2022-12-11T00:47:54.454Z,1.00
2022-12-11T00:48:54.439Z,1.00
2022-12-11T00:49:54.417Z,1.00
2022-12-11T00:50:54.432Z,1.00
2022-12-11T00:51:54.426Z,1.00
2022-12-11T00:52:54.392Z,1.00
2022-12-11T00:53:54.410Z,1.00
2022-12-11T00:54:54.400Z,1.00
2022-12-11T00:55:54.378Z,1.00
2022-12-11T00:56:54.366Z,1.00
2022-12-11T00:57:54.368Z,1.00
2022-12-11T00:58:54.392Z,1.00
2022-12-11T00:59:54.352Z,1.00
2022-12-11T01:00:54.441Z,1.00
2022-12-11T01:01:54.349Z,1.00
2022-12-11T01:02:54.409Z,1.00
2022-12-11T01:03:54.346Z,1.00
2022-12-11T01:04:54.333Z,1.00
2022-12-11T01:05:54.337Z,1.00
2022-12-11T01:06:54.309Z,1.00
2022-12-11T01:07:54.360Z,1.00
2022-12-11T01:08:54.315Z,1.00
2022-12-11T01:09:54.290Z,1.00
2022-12-11T01:10:54.358Z,1.00
2022-12-11T01:11:54.295Z,1.00
2022-12-11T01:12:54.304Z,1.00
2022-12-11T01:13:54.270Z,1.00
2022-12-11T01:14:54.269Z,1.00
2022-12-11T01:15:54.254Z,1.00
2022-12-11T01:16:54.342Z,1.00
2022-12-11T01:17:54.238Z,1.00
2022-12-11T01:18:54.249Z,1.00
2022-12-11T01:19:54.240Z,1.00
2022-12-11T01:20:54.245Z,1.00
2022-12-11T01:21:54.219Z,1.00
2022-12-11T01:22:54.218Z,1.00
2022-12-11T01:23:54.230Z,1.00
2022-12-11T01:24:54.199Z,1.00
2022-12-11T01:25:54.179Z,1.00
2022-12-11T01:26:54.169Z,1.00
2022-12-11T01:27:54.180Z,1.00
2022-12-11T01:28:54.159Z,1.00
2022-12-11T01:29:54.168Z,1.00
2022-12-11T01:30:54.181Z,1.00
2022-12-11T01:31:54.153Z,1.00
2022-12-11T01:32:54.140Z,1.00
2022-12-11T01:33:54.142Z,1.00
2022-12-11T01:34:54.134Z,1.00
2022-12-11T01:35:54.122Z,1.00
2022-12-11T01:36:54.142Z,1.00
2022-12-11T01:37:54.143Z,1.00
2022-12-11T01:38:54.104Z,1.00
2022-12-11T01:39:54.108Z,1.00
2022-12-11T01:40:54.086Z,1.00
2022-12-11T01:41:54.087Z,1.00
2022-12-11T01:42:54.084Z,1.00
2022-12-11T01:43:54.080Z,1.00
2022-12-11T01:44:54.097Z,1.00
2022-12-11T01:45:54.093Z,1.00
2022-12-11T01:46:54.048Z,1.00
2022-12-11T01:47:54.070Z,1.00
2022-12-11T01:48:54.063Z,1.00
2022-12-11T01:49:54.028Z,1.00
2022-12-11T01:50:54.021Z,1.00
2022-12-11T01:51:54.023Z,1.00
2022-12-11T01:52:54.023Z,1.00
2022-12-11T01:53:54.008Z,1.00
2022-12-11T01:54:54.011Z,1.00
2022-12-11T01:55:53.985Z,1.00
2022-12-11T01:56:53.980Z,1.00
2022-12-11T01:57:54.052Z,1.00
2022-12-11T01:58:53.972Z,1.00
2022-12-11T01:59:53.975Z,1.00
2022-12-11T02:00:54.012Z,1.00
2022-12-11T02:01:53.946Z,1.00
2022-12-11T02:02:53.980Z,1.00
2022-12-11T02:03:53.933Z,1.00
2022-12-11T02:04:53.937Z,1.00
2022-12-11T02:05:53.915Z,1.00
2022-12-11T02:06:53.926Z,1.00
2022-12-11T02:07:53.980Z,1.00
2022-12-11T02:08:53.897Z,1.00
2022-12-11T02:09:53.919Z,1.00
2022-12-11T02:10:53.886Z,1.00
2022-12-11T02:11:53.884Z,1.00
2022-12-11T02:12:53.873Z,1.00
2022-12-11T02:13:53.867Z,1.00
2022-12-11T02:14:53.860Z,1.00
2022-12-11T02:15:53.874Z,1.00
2022-12-11T02:16:53.863Z,1.00
2022-12-11T02:17:53.891Z,1.00
2022-12-11T02:18:53.831Z,1.00
2022-12-11T02:19:53.843Z,1.00
2022-12-11T02:20:53.824Z,1.00
2022-12-11T02:21:53.810Z,1.00
2022-12-11T02:22:53.827Z,1.00
2022-12-11T02:23:53.819Z,1.00
2022-12-11T02:24:53.808Z,1.00
2022-12-11T02:25:53.813Z,1.00
2022-12-11T02:26:53.782Z,1.00
2022-12-11T02:27:53.775Z,1.00
2022-12-11T02:28:53.766Z,1.00
2022-12-11T02:29:53.767Z,1.00
2022-12-11T02:30:53.753Z,1.00
2022-12-11T02:31:53.806Z,1.00
2022-12-11T02:32:53.753Z,1.00
2022-12-11T02:33:53.739Z,1.00
2022-12-11T02:34:53.724Z,1.00
2022-12-11T02:35:53.727Z,1.00
2022-12-11T02:36:53.739Z,1.00
2022-12-11T02:37:53.711Z,1.00
2022-12-11T02:38:53.698Z,1.00
2022-12-11T02:39:53.697Z,1.00
2022-12-11T02:40:53.684Z,1.00
2022-12-11T02:41:53.699Z,1.00
2022-12-11T02:42:53.684Z,1.00
2022-12-11T02:43:53.663Z,1.00
2022-12-11T02:44:53.661Z,1.00
2022-12-11T02:45:53.695Z,1.00
2022-12-11T02:46:53.660Z,1.00
2022-12-11T02:47:53.648Z,1.00
2022-12-11T02:48:53.643Z,1.00
2022-12-11T02:49:53.632Z,1.00
2022-12-11T02:50:53.623Z,1.00
2022-12-11T02:51:53.633Z,1.00
2022-12-11T02:52:53.625Z,1.00
2022-12-11T02:53:53.631Z,1.00
2022-12-11T02:54:53.591Z,1.00
2022-12-11T02:55:53.599Z,1.00
2022-12-11T02:56:53.594Z,1.00
2022-12-11T02:57:53.585Z,1.00
2022-12-11T02:58:58.367Z,1.00
2022-12-11T02:59:54.585Z,1.00
2022-12-11T03:00:53.558Z,1.00
2022-12-11T03:01:53.550Z,1.00
2022-12-11T03:02:53.541Z,1.00
2022-12-11T03:03:53.534Z,1.00
2022-12-11T03:04:53.528Z,1.00
2022-12-11T03:05:53.551Z,1.00
2022-12-11T03:06:53.521Z,1.00
2022-12-11T03:07:53.572Z,1.00
2022-12-11T03:08:53.512Z,1.00
2022-12-11T03:09:53.510Z,1.00
2022-12-11T03:10:53.497Z,1.00
2022-12-11T03:11:53.505Z,1.00
2022-12-11T03:12:54.133Z,1.00
2022-12-11T03:13:53.480Z,1.00
2022-12-11T03:14:53.467Z,1.00
2022-12-11T03:15:53.466Z,1.00
2022-12-11T03:16:53.453Z,1.00
2022-12-11T03:17:53.453Z,1.00
2022-12-11T03:18:53.464Z,1.00
2022-12-11T03:19:53.437Z,1.00
2022-12-11T03:20:53.465Z,1.00
2022-12-11T03:21:53.433Z,1.00
2022-12-11T03:22:53.430Z,1.00
2022-12-11T03:23:53.942Z,1.00
2022-12-11T03:24:53.402Z,1.00
2022-12-11T03:25:53.407Z,1.00
2022-12-11T03:26:56.503Z,1.00
2022-12-11T03:27:53.402Z,1.00
2022-12-11T03:28:53.383Z,1.00
2022-12-11T03:29:53.380Z,1.00
2022-12-11T03:30:53.447Z,1.00
2022-12-11T03:31:53.422Z,1.00
2022-12-11T03:32:53.367Z,1.00
2022-12-11T03:33:53.363Z,1.00
2022-12-11T03:34:58.064Z,1.00
2022-12-11T03:35:54.339Z,1.00
2022-12-11T03:36:53.344Z,1.00
2022-12-11T03:37:53.350Z,1.00
2022-12-11T03:38:53.324Z,1.00
2022-12-11T03:39:53.320Z,1.00
2022-12-11T03:40:53.308Z,1.00
2022-12-11T03:41:53.363Z,1.00
2022-12-11T03:42:53.310Z,1.00
2022-12-11T03:43:53.298Z,1.00
2022-12-11T03:44:53.303Z,1.00
2022-12-11T03:45:53.308Z,1.00
2022-12-11T03:46:53.272Z,1.00
2022-12-11T03:47:53.290Z,1.00
2022-12-11T03:48:53.258Z,1.00
2022-12-11T03:49:53.279Z,1.00
2022-12-11T03:50:53.248Z,1.00
2022-12-11T03:51:53.254Z,1.00
2022-12-11T03:52:53.234Z,1.00
2022-12-11T03:53:53.230Z,1.00
2022-12-11T03:54:53.225Z,1.00
2022-12-11T03:55:53.233Z,1.00
2022-12-11T03:56:53.206Z,1.00
2022-12-11T03:57:53.213Z,1.00
2022-12-11T03:58:53.222Z,1.00
2022-12-11T03:59:53.202Z,1.00
2022-12-11T04:00:53.214Z,1.00
2022-12-11T04:01:53.242Z,1.00
2022-12-11T04:02:53.194Z,1.00
2022-12-11T04:03:53.245Z,1.00
2022-12-11T04:04:53.171Z,1.00
2022-12-11T04:05:53.189Z,1.00
2022-12-11T04:06:53.154Z,1.00
2022-12-11T04:07:53.227Z,1.00
2022-12-11T04:08:53.136Z,1.00
2022-12-11T04:09:53.144Z,1.00
2022-12-11T04:10:53.127Z,1.00
2022-12-11T04:11:53.119Z,1.00
2022-12-11T04:12:53.119Z,1.00
2022-12-11T04:13:53.124Z,1.00
2022-12-11T04:14:53.101Z,1.00
2022-12-11T04:15:53.123Z,1.00
2022-12-11T04:16:53.108Z,1.00
2022-12-11T04:17:53.120Z,1.00
2022-12-11T04:18:53.077Z,1.00
2022-12-11T04:19:53.085Z,1.00
2022-12-11T04:20:53.086Z,1.00
2022-12-11T04:21:53.070Z,1.00
2022-12-11T04:22:53.053Z,1.00
2022-12-11T04:23:53.055Z,1.00
2022-12-11T04:24:53.061Z,1.00
2022-12-11T04:25:53.039Z,1.00
2022-12-11T04:26:53.026Z,1.00
2022-12-11T04:27:53.043Z,1.00
2022-12-11T04:28:53.016Z,1.00
2022-12-11T04:29:53.011Z,1.00
2022-12-11T04:30:53.100Z,1.00
2022-12-11T04:31:53.000Z,1.00
2022-12-11T04:32:52.983Z,1.00
2022-12-11T04:33:52.983Z,1.00
2022-12-11T04:34:52.972Z,1.00
2022-12-11T04:35:52.969Z,1.00
2022-12-11T04:36:52.980Z,1.00
2022-12-11T04:37:52.969Z,1.00
2022-12-11T04:38:52.962Z,1.00
2022-12-11T04:39:52.948Z,1.00
2022-12-11T04:40:52.933Z,1.00
2022-12-11T04:41:52.954Z,1.00
2022-12-11T04:42:52.927Z,1.00
2022-12-11T04:43:52.928Z,1.00
2022-12-11T04:44:52.926Z,1.00
2022-12-11T04:45:52.905Z,1.00
2022-12-11T04:46:52.926Z,1.00
2022-12-11T04:47:52.913Z,1.00
2022-12-11T04:48:57.367Z,1.00
2022-12-11T04:49:53.886Z,1.00
2022-12-11T04:50:52.867Z,1.00
2022-12-11T04:51:52.894Z,1.00
2022-12-11T04:52:52.851Z,1.00
2022-12-11T04:53:52.848Z,1.00
2022-12-11T04:54:52.839Z,1.00
2022-12-11T04:55:52.840Z,1.00
2022-12-11T04:56:52.825Z,1.00
2022-12-11T04:57:52.839Z,1.00
2022-12-11T04:58:52.812Z,1.00
2022-12-11T04:59:52.811Z,1.00
2022-12-11T05:00:52.800Z,1.00
2022-12-11T05:01:52.906Z,1.00
2022-12-11T05:02:52.847Z,1.00
2022-12-11T05:03:52.782Z,1.00
2022-12-11T05:04:52.779Z,1.00
2022-12-11T05:05:52.792Z,1.00
2022-12-11T05:06:52.785Z,1.00
2022-12-11T05:07:52.788Z,1.00
2022-12-11T05:08:52.758Z,1.00
2022-12-11T05:09:52.763Z,1.00
2022-12-11T05:10:52.742Z,1.00
2022-12-11T05:11:52.734Z,1.00
2022-12-11T05:12:52.781Z,1.00
2022-12-11T05:13:52.723Z,1.00
2022-12-11T05:14:52.721Z,1.00
2022-12-11T05:15:52.768Z,1.00
2022-12-11T05:16:52.699Z,1.00
2022-12-11T05:17:52.697Z,1.00
2022-12-11T05:18:52.716Z,1.00
2022-12-11T05:19:52.689Z,1.00
2022-12-11T05:20:52.679Z,1.00
2022-12-11T05:21:52.669Z,1.00
2022-12-11T05:22:52.679Z,1.00
2022-12-11T05:23:52.659Z,1.00
2022-12-11T05:24:52.657Z,1.00
2022-12-11T05:25:52.669Z,1.00
2022-12-11T05:26:52.640Z,1.00
2022-12-11T05:27:52.636Z,1.00
2022-12-11T05:28:52.623Z,1.00
2022-12-11T05:29:57.799Z,1.00
2022-12-11T05:30:52.633Z,1.00
2022-12-11T05:31:52.624Z,1.00
2022-12-11T05:32:52.601Z,1.00
2022-12-11T05:33:52.601Z,1.00
2022-12-11T05:34:52.590Z,1.00
2022-12-11T05:35:52.579Z,1.00
2022-12-11T05:36:52.571Z,1.00
2022-12-11T05:37:52.603Z,1.00
2022-12-11T05:38:52.565Z,1.00
2022-12-11T05:39:52.584Z,1.00
2022-12-11T05:40:52.555Z,1.00
2022-12-11T05:41:52.572Z,1.00
2022-12-11T05:42:52.547Z,1.00
2022-12-11T05:43:52.536Z,1.00
2022-12-11T05:44:52.520Z,1.00
2022-12-11T05:45:52.521Z,1.00
2022-12-11T05:46:52.554Z,1.00
2022-12-11T05:47:52.536Z,1.00
2022-12-11T05:48:52.518Z,1.00
2022-12-11T05:49:52.506Z,1.00
2022-12-11T05:50:52.494Z,1.00
2022-12-11T05:51:52.494Z,1.00
2022-12-11T05:52:52.481Z,1.00
2022-12-11T05:53:52.494Z,1.00
2022-12-11T05:54:52.470Z,1.00
2022-12-11T05:55:52.462Z,1.00
2022-12-11T05:56:52.462Z,1.00
2022-12-11T05:57:52.456Z,1.00
2022-12-11T05:58:52.459Z,1.00
2022-12-11T05:59:52.441Z,1.00
2022-12-11T06:00:52.435Z,1.00
2022-12-11T06:01:52.677Z,1.00
2022-12-11T06:02:52.689Z,1.00
2022-12-11T06:03:52.421Z,1.00
2022-12-11T06:04:52.406Z,1.00
2022-12-11T06:05:52.412Z,1.00
2022-12-11T06:06:52.449Z,1.00
2022-12-11T06:07:52.471Z,1.00
2022-12-11T06:08:52.390Z,1.00
2022-12-11T06:09:52.380Z,1.00
2022-12-11T06:10:52.401Z,1.00
2022-12-11T06:11:52.387Z,1.00
2022-12-11T06:12:52.401Z,1.00
2022-12-11T06:13:52.401Z,1.00
2022-12-11T06:14:52.353Z,1.00
2022-12-11T06:15:52.358Z,1.00
2022-12-11T06:16:52.407Z,1.00
2022-12-11T06:17:52.329Z,1.00
2022-12-11T06:18:54.672Z,1.00
2022-12-11T06:19:53.320Z,1.00
2022-12-11T06:20:52.311Z,1.00
2022-12-11T06:21:52.316Z,1.00
2022-12-11T06:22:52.300Z,1.00
2022-12-11T06:23:52.310Z,1.00
2022-12-11T06:24:52.301Z,1.00
2022-12-11T06:25:52.278Z,1.00
2022-12-11T06:26:52.278Z,1.00
2022-12-11T06:27:52.271Z,1.00
2022-12-11T06:28:52.262Z,1.00
2022-12-11T06:29:52.260Z,1.00
2022-12-11T06:30:52.346Z,1.00
2022-12-11T06:31:52.323Z,1.00
2022-12-11T06:32:52.238Z,1.00
2022-12-11T06:33:52.228Z,0.00
2022-12-11T06:34:52.242Z,0.00
2022-12-11T06:35:52.214Z,0.00
2022-12-11T06:36:52.207Z,0.00
2022-12-11T06:37:52.211Z,0.00
2022-12-11T06:38:52.221Z,1.00
2022-12-11T06:39:52.193Z,1.00
2022-12-11T06:40:52.186Z,1.00
2022-12-11T06:41:52.197Z,1.00
2022-12-11T06:42:52.233Z,1.00
2022-12-11T06:43:52.171Z,1.00
2022-12-11T06:44:52.159Z,1.00
2022-12-11T06:45:52.177Z,1.00
2022-12-11T06:46:52.225Z,2.00
2022-12-11T06:47:52.158Z,1.00
2022-12-11T06:48:52.139Z,1.00
2022-12-11T06:49:52.131Z,1.00
2022-12-11T06:50:52.122Z,2.00
2022-12-11T06:51:52.120Z,2.00
2022-12-11T06:52:52.111Z,1.00
2022-12-11T06:53:52.128Z,2.00
2022-12-11T06:54:52.088Z,3.00
2022-12-11T06:55:52.094Z,2.00
2022-12-11T06:56:52.084Z,3.00
2022-12-11T06:57:52.082Z,2.00
2022-12-11T06:58:52.221Z,4.00
2022-12-11T06:59:52.081Z,6.00
2022-12-11T07:00:52.106Z,5.00
2022-12-11T07:01:52.079Z,5.00
2022-12-11T07:02:52.039Z,6.00
2022-12-11T07:03:52.041Z,5.00
2022-12-11T07:04:55.285Z,4.00
2022-12-11T07:05:52.038Z,6.00
2022-12-11T07:06:52.044Z,7.00
2022-12-11T07:07:52.051Z,10.00
2022-12-11T07:08:52.011Z,9.00
2022-12-11T07:09:51.996Z,10.00
2022-12-11T07:10:51.991Z,10.00
2022-12-11T07:11:51.987Z,10.00
2022-12-11T07:12:52.005Z,11.00
2022-12-11T07:13:51.976Z,12.00
2022-12-11T07:14:51.968Z,13.00
2022-12-11T07:15:51.962Z,14.00
2022-12-11T07:16:51.996Z,15.00
2022-12-11T07:17:51.973Z,15.00
2022-12-11T07:18:51.955Z,17.00
2022-12-11T07:19:51.964Z,18.00
2022-12-11T07:20:51.932Z,20.00
2022-12-11T07:21:51.921Z,21.00
2022-12-11T07:22:51.915Z,23.00
2022-12-11T07:23:51.911Z,22.00
2022-12-11T07:24:51.904Z,24.00
2022-12-11T07:25:51.912Z,26.00
2022-12-11T07:26:51.914Z,29.00
2022-12-11T07:27:51.930Z,28.00
2022-12-11T07:28:51.884Z,30.00
2022-12-11T07:29:51.878Z,29.00
2022-12-11T07:30:51.883Z,31.00
2022-12-11T07:31:51.906Z,33.00
2022-12-11T07:32:51.986Z,36.00
2022-12-11T07:33:51.849Z,38.00
2022-12-11T07:34:52.290Z,39.00
2022-12-11T07:35:51.840Z,41.00
2022-12-11T07:36:51.885Z,41.00
2022-12-11T07:37:51.822Z,39.00
2022-12-11T07:38:51.821Z,40.00
2022-12-11T07:39:51.847Z,42.00
2022-12-11T07:40:51.805Z,40.00
2022-12-11T07:41:51.798Z,41.00
2022-12-11T07:42:51.813Z,43.00
2022-12-11T07:43:51.787Z,44.00
2022-12-11T07:44:51.785Z,47.00
2022-12-11T07:45:51.836Z,52.00
2022-12-11T07:46:51.768Z,54.00
2022-12-11T07:47:51.793Z,55.00
2022-12-11T07:48:51.764Z,56.00
2022-12-11T07:49:51.755Z,56.00
2022-12-11T07:50:51.735Z,56.00
2022-12-11T07:51:51.747Z,56.00
2022-12-11T07:52:51.746Z,54.00
2022-12-11T07:53:51.728Z,54.00
2022-12-11T07:54:51.728Z,53.00
2022-12-11T07:55:51.711Z,55.00
2022-12-11T07:56:53.877Z,57.00
2022-12-11T07:57:51.724Z,60.00
2022-12-11T07:58:51.706Z,63.00
2022-12-11T07:59:51.688Z,65.00
2022-12-11T08:00:51.720Z,65.00
2022-12-11T08:01:51.682Z,66.00
2022-12-11T08:02:51.673Z,68.00
2022-12-11T08:03:51.656Z,68.00
2022-12-11T08:04:51.668Z,70.00
2022-12-11T08:05:51.652Z,72.00
2022-12-11T08:06:51.635Z,74.00
2022-12-11T08:07:51.746Z,78.00
2022-12-11T08:08:51.626Z,84.00
2022-12-11T08:09:51.622Z,88.00
2022-12-11T08:10:51.633Z,93.00
2022-12-11T08:11:51.624Z,99.00
2022-12-11T08:12:51.597Z,105.00
2022-12-11T08:13:51.599Z,111.00
2022-12-11T08:14:51.585Z,117.00
2022-12-11T08:15:52.001Z,118.00
2022-12-11T08:16:51.651Z,119.00
2022-12-11T08:17:51.588Z,115.00
2022-12-11T08:18:51.583Z,114.00
2022-12-11T08:19:51.563Z,111.00
2022-12-11T08:20:51.549Z,114.00
2022-12-11T08:21:51.547Z,115.00
2022-12-11T08:22:55.913Z,113.00
2022-12-11T08:23:51.537Z,115.00
2022-12-11T08:24:51.532Z,123.00
2022-12-11T08:25:51.548Z,133.00
2022-12-11T08:26:51.516Z,146.00
2022-12-11T08:27:51.526Z,158.00
2022-12-11T08:28:51.501Z,170.00
2022-12-11T08:29:51.512Z,178.00
2022-12-11T08:30:51.544Z,183.00
2022-12-11T08:31:51.490Z,187.00
2022-12-11T08:32:51.479Z,189.00
2022-12-11T08:33:51.472Z,192.00
2022-12-11T08:34:51.484Z,193.00
2022-12-11T08:35:51.469Z,194.00
2022-12-11T08:36:51.454Z,195.00
2022-12-11T08:37:51.451Z,193.00
2022-12-11T08:38:51.452Z,192.00
2022-12-11T08:39:51.463Z,189.00
2022-12-11T08:40:51.447Z,185.00
2022-12-11T08:41:51.430Z,191.00
2022-12-11T08:42:51.417Z,200.00
2022-12-11T08:43:51.421Z,204.00
2022-12-11T08:44:51.399Z,202.00
2022-12-11T08:45:51.462Z,200.00
2022-12-11T08:46:51.386Z,196.00
2022-12-11T08:47:51.390Z,194.00
2022-12-11T08:48:51.380Z,191.00
2022-12-11T08:49:51.390Z,184.00
2022-12-11T08:50:51.388Z,178.00
2022-12-11T08:51:51.380Z,173.00
2022-12-11T08:52:51.357Z,172.00
2022-12-11T08:53:51.364Z,173.00
2022-12-11T08:54:51.339Z,172.00
2022-12-11T08:55:51.345Z,179.00
2022-12-11T08:56:56.333Z,189.00
2022-12-11T08:57:52.365Z,200.00
2022-12-11T08:58:51.341Z,202.00
2022-12-11T08:59:51.317Z,197.00
2022-12-11T09:00:51.311Z,191.00
2022-12-11T09:01:51.356Z,191.00
2022-12-11T09:02:51.354Z,203.00
2022-12-11T09:03:51.299Z,210.00
2022-12-11T09:04:51.300Z,217.00
2022-12-11T09:05:51.313Z,226.00
2022-12-11T09:06:51.291Z,233.00
2022-12-11T09:07:51.327Z,240.00
2022-12-11T09:08:52.920Z,245.00
2022-12-11T09:09:51.250Z,249.00
2022-12-11T09:10:51.239Z,253.00
2022-12-11T09:11:51.254Z,259.00
2022-12-11T09:12:51.234Z,262.00
2022-12-11T09:13:51.264Z,263.00
2022-12-11T09:14:51.247Z,263.00
2022-12-11T09:15:51.291Z,265.00
2022-12-11T09:16:51.227Z,261.00
2022-12-11T09:17:51.200Z,260.00
2022-12-11T09:18:51.233Z,256.00
2022-12-11T09:19:51.193Z,250.00
2022-12-11T09:20:51.197Z,247.00
2022-12-11T09:21:51.193Z,240.00
2022-12-11T09:22:51.193Z,229.00
2022-12-11T09:23:51.179Z,215.00
2022-12-11T09:24:51.175Z,193.00
2022-12-11T09:25:51.477Z,172.00
2022-12-11T09:26:51.143Z,162.00
2022-12-11T09:27:51.141Z,158.00
2022-12-11T09:28:51.133Z,162.00
2022-12-11T09:29:51.122Z,169.00
2022-12-11T09:30:51.151Z,177.00
2022-12-11T09:31:51.130Z,181.00
2022-12-11T09:32:51.100Z,184.00
2022-12-11T09:33:51.107Z,186.00
2022-12-11T09:34:51.094Z,189.00
2022-12-11T09:35:51.084Z,193.00
2022-12-11T09:36:51.090Z,199.00
2022-12-11T09:37:51.079Z,209.00
2022-12-11T09:38:51.059Z,215.00
2022-12-11T09:39:51.051Z,220.00
2022-12-11T09:40:51.061Z,218.00
2022-12-11T09:41:51.060Z,217.00
2022-12-11T09:42:51.088Z,218.00
2022-12-11T09:43:51.037Z,223.00
2022-12-11T09:44:51.033Z,231.00
2022-12-11T09:45:51.056Z,241.00
2022-12-11T09:46:51.113Z,244.00
2022-12-11T09:47:51.003Z,244.00
2022-12-11T09:48:50.999Z,242.00
2022-12-11T09:49:50.992Z,243.00
2022-12-11T09:50:50.987Z,244.00
2022-12-11T09:51:51.016Z,246.00
2022-12-11T09:52:51.001Z,247.00
2022-12-11T09:53:50.962Z,250.00
2022-12-11T09:54:50.956Z,249.00
2022-12-11T09:55:50.957Z,249.00
2022-12-11T09:56:50.949Z,251.00
2022-12-11T09:57:50.939Z,256.00
2022-12-11T09:58:50.937Z,260.00
2022-12-11T09:59:50.929Z,260.00
2022-12-11T10:00:50.929Z,255.00
2022-12-11T10:01:50.954Z,249.00
2022-12-11T10:02:50.982Z,238.00
2022-12-11T10:03:50.891Z,231.00
2022-12-11T10:04:50.895Z,227.00
2022-12-11T10:05:50.901Z,229.00
2022-12-11T10:06:50.917Z,229.00
2022-12-11T10:07:50.894Z,229.00
2022-12-11T10:08:50.865Z,232.00
2022-12-11T10:09:50.876Z,242.00
2022-12-11T10:10:50.857Z,261.00
2022-12-11T10:11:56.414Z,282.00
2022-12-11T10:12:51.851Z,300.00
2022-12-11T10:13:50.841Z,322.00
2022-12-11T10:14:50.893Z,343.00
2022-12-11T10:15:50.906Z,361.00
2022-12-11T10:16:50.822Z,371.00
2022-12-11T10:17:50.827Z,374.00
2022-12-11T10:18:50.824Z,371.00
2022-12-11T10:19:50.831Z,367.00
2022-12-11T10:20:50.801Z,366.00
2022-12-11T10:21:50.819Z,366.00
2022-12-11T10:22:50.778Z,375.00
2022-12-11T10:23:50.782Z,386.00
2022-12-11T10:25:10.712Z,398.00
2022-12-11T10:25:51.778Z,405.00
2022-12-11T10:26:50.787Z,407.00
2022-12-11T10:27:50.769Z,406.00
2022-12-11T10:28:50.746Z,406.00
2022-12-11T10:29:50.732Z,405.00
2022-12-11T10:30:50.765Z,402.00
2022-12-11T10:31:50.728Z,402.00
2022-12-11T10:32:50.715Z,402.00
2022-12-11T10:33:50.781Z,402.00
2022-12-11T10:34:50.730Z,401.00
2022-12-11T10:35:50.752Z,399.00
2022-12-11T10:36:51.141Z,393.00
2022-12-11T10:37:50.703Z,393.00
2022-12-11T10:38:50.707Z,396.00
2022-12-11T10:39:50.708Z,401.00
2022-12-11T10:40:50.679Z,406.00
2022-12-11T10:41:50.690Z,412.00
2022-12-11T10:42:50.694Z,412.00
2022-12-11T10:43:50.665Z,408.00
2022-12-11T10:44:50.693Z,406.00
2022-12-11T10:45:50.680Z,404.00
2022-12-11T10:46:50.681Z,398.00
2022-12-11T10:47:50.643Z,384.00
2022-12-11T10:48:50.657Z,370.00
2022-12-11T10:49:50.633Z,360.00
2022-12-11T10:50:50.655Z,356.00
2022-12-11T10:51:50.619Z,357.00
2022-12-11T10:52:50.613Z,361.00
2022-12-11T10:53:50.604Z,369.00
2022-12-11T10:54:50.626Z,383.00
2022-12-11T10:55:50.594Z,398.00
2022-12-11T10:56:50.607Z,405.00
2022-12-11T10:57:50.599Z,408.00
2022-12-11T10:58:50.567Z,407.00
2022-12-11T10:59:50.590Z,403.00
2022-12-11T11:00:50.578Z,404.00
2022-12-11T11:01:50.584Z,409.00
2022-12-11T11:02:50.551Z,419.00
2022-12-11T11:03:50.542Z,424.00
2022-12-11T11:04:50.527Z,423.00
2022-12-11T11:05:50.565Z,415.00
2022-12-11T11:06:50.511Z,401.00
2022-12-11T11:07:50.547Z,387.00
2022-12-11T11:08:50.505Z,371.00
2022-12-11T11:09:50.492Z,356.00
2022-12-11T11:10:50.500Z,344.00
2022-12-11T11:11:50.533Z,337.00
2022-12-11T11:12:50.493Z,336.00
2022-12-11T11:13:50.473Z,337.00
2022-12-11T11:14:50.462Z,334.00
2022-12-11T11:15:50.499Z,335.00
2022-12-11T11:16:50.448Z,332.00
2022-12-11T11:17:55.029Z,326.00
2022-12-11T11:18:51.463Z,318.00
2022-12-11T11:19:50.435Z,312.00
2022-12-11T11:20:50.450Z,310.00
2022-12-11T11:21:50.471Z,310.00
2022-12-11T11:22:50.422Z,310.00
2022-12-11T11:23:53.280Z,300.00
2022-12-11T11:24:50.421Z,288.00
2022-12-11T11:25:50.405Z,280.00
2022-12-11T11:27:12.758Z,277.00
2022-12-11T11:27:51.430Z,285.00
2022-12-11T11:28:50.387Z,297.00
2022-12-11T11:29:53.206Z,307.00
2022-12-11T11:30:50.430Z,310.00
2022-12-11T11:31:50.363Z,302.00
2022-12-11T11:32:50.393Z,293.00
2022-12-11T11:33:50.364Z,286.00
2022-12-11T11:34:50.337Z,280.00
2022-12-11T11:35:50.336Z,271.00
2022-12-11T11:36:50.354Z,268.00
2022-12-11T11:37:50.342Z,266.00
2022-12-11T11:38:50.311Z,277.00
2022-12-11T11:39:50.315Z,290.00
2022-12-11T11:40:50.303Z,303.00
2022-12-11T11:41:50.293Z,308.00
2022-12-11T11:42:50.393Z,305.00
2022-12-11T11:43:50.302Z,301.00
2022-12-11T11:44:50.282Z,305.00
2022-12-11T11:45:50.288Z,313.00
2022-12-11T11:46:50.287Z,326.00
2022-12-11T11:47:50.325Z,339.00
2022-12-11T11:48:50.266Z,350.00
2022-12-11T11:49:50.245Z,355.00
2022-12-11T11:50:50.242Z,353.00
2022-12-11T11:51:50.271Z,350.00
2022-12-11T11:52:50.295Z,345.00
2022-12-11T11:53:50.233Z,338.00
2022-12-11T11:54:50.233Z,328.00
2022-12-11T11:55:50.225Z,316.00
2022-12-11T11:56:50.194Z,302.00
2022-12-11T11:57:50.199Z,292.00
2022-12-11T11:58:50.191Z,284.00
2022-12-11T11:59:50.186Z,272.00
2022-12-11T12:00:50.173Z,259.00
2022-12-11T12:01:50.191Z,249.00
2022-12-11T12:02:50.281Z,239.00
2022-12-11T12:03:50.169Z,233.00
2022-12-11T12:04:50.139Z,229.00
2022-12-11T12:05:50.165Z,228.00
2022-12-11T12:06:51.073Z,228.00
2022-12-11T12:07:50.256Z,232.00
2022-12-11T12:08:50.121Z,236.00
2022-12-11T12:09:50.151Z,239.00
2022-12-11T12:10:50.118Z,241.00
2022-12-11T12:11:50.103Z,244.00
2022-12-11T12:12:50.144Z,243.00
2022-12-11T12:13:50.553Z,243.00
2022-12-11T12:14:52.574Z,246.00
2022-12-11T12:15:50.125Z,256.00
2022-12-11T12:16:53.035Z,274.00
2022-12-11T12:17:55.160Z,299.00
2022-12-11T12:18:51.062Z,319.00
2022-12-11T12:19:50.061Z,328.00
2022-12-11T12:20:50.052Z,327.00
2022-12-11T12:21:50.029Z,322.00
2022-12-11T12:22:50.025Z,315.00
2022-12-11T12:23:50.042Z,307.00
2022-12-11T12:24:50.037Z,301.00
2022-12-11T12:25:50.013Z,291.00
2022-12-11T12:26:50.000Z,276.00
2022-12-11T12:27:52.806Z,262.00
2022-12-11T12:28:49.994Z,246.00
2022-12-11T12:29:50.060Z,232.00
2022-12-11T12:30:49.996Z,220.00
2022-12-11T12:31:50.037Z,210.00
2022-12-11T12:32:49.986Z,207.00
2022-12-11T12:33:49.995Z,213.00
2022-12-11T12:34:49.969Z,223.00
2022-12-11T12:35:49.945Z,232.00
2022-12-11T12:36:49.932Z,234.00
2022-12-11T12:37:49.928Z,226.00
2022-12-11T12:38:49.923Z,213.00
2022-12-11T12:39:49.944Z,189.00
2022-12-11T12:40:49.930Z,160.00
2022-12-11T12:41:49.928Z,137.00
2022-12-11T12:42:49.923Z,124.00
2022-12-11T12:43:49.962Z,116.00
2022-12-11T12:44:49.891Z,115.00
2022-12-11T12:45:49.934Z,115.00
2022-12-11T12:46:49.888Z,116.00
2022-12-11T12:47:53.365Z,114.00
2022-12-11T12:48:49.879Z,118.00
2022-12-11T12:49:49.870Z,126.00
2022-12-11T12:50:49.863Z,135.00
2022-12-11T12:51:49.886Z,149.00
2022-12-11T12:52:49.858Z,164.00
2022-12-11T12:53:49.851Z,178.00
2022-12-11T12:54:49.843Z,196.00
2022-12-11T12:55:49.823Z,211.00
2022-12-11T12:56:49.806Z,228.00
2022-12-11T12:57:49.825Z,240.00